x

Boston 16 Nm East Of Boston, Ma (44013) Wave Buoy

2:50pm - Fri 26th Aug 2016 All times are EDT. -4 hours from GMT.

  • Sig Wave height 1.0ft
  • Swell Direction
  • Peak Period 8s
  • Average Period 4s
  • Wind
    4mph, 7mph gusts
  • Sea Temp 72°f
  • Air Temp 77°f
  • Sea Pressure 1013.1mb
  • Boston 16 Nm East Of Boston, Ma
  • Boston 16 Nm East Of Boston, Ma

More Historic Weather Station data

Upgrade to MSW Pro to gain access to the past 30 days of data for over 8000 Wavebouys and Weather Stations around the globe.

Join Pro

Comparision Forecast

View Surf forecast
   
Fri 08/26 2:50pm 1ft 8s 4s 4 7 mph 1013.1mb 72f 77f
1:50pm 1ft 8s 4s 2
mph
1013.3mb 68f 79f
12:50pm 1ft 8s 4s 4
mph
1013.6mb 68f 74f
11:50am 1ft 9s 4s 4 7 mph 1013.9mb 68f 73f
9:50am 1ft 3s 4s 7
mph
1014.1mb 67f 71f
8:50am 1ft 10s 4s 9 11 mph 1014.2mb 67f 72f
7:50am 1.3ft 4s 4s 11
mph
1014.3mb 67f 71f
6:50am 1.3ft 4s 4s 9
mph
1014.2mb 67f 69f
5:50am 1.6ft 4s 4s 11
mph
1014mb 67f 69f
4:50am 1.6ft 4s 4s 9 13 mph 1013.9mb 66f 70f
3:50am 1.3ft 9s 4s 11
mph
1014mb 66f 70f
2:50am 1.3ft 9s 4s 11
mph
1014.3mb 66f 70f
1:50am 1.3ft 9s 4s 11
mph
1014.6mb 66f 70f
12:50am 1.3ft 8s 4s 11 13 mph 1014.8mb 67f 70f
Thu 08/25 11:50pm 1.6ft 8s 4s 11 13 mph 1015.1mb 67f 71f
10:50pm 1.3ft 9s 4s 11 13 mph 1015.5mb 67f 71f
8:50pm 1.3ft 9s 3s 13 16 mph 1015.5mb 68f 72f
7:50pm 1.6ft 3s 3s 16 18 mph 1015.1mb 69f 73f
6:50pm 1.6ft 9s 4s 13 16 mph 1014.9mb 69f 73f
5:50pm 1.3ft 10s 3s 16 18 mph 1014.6mb 69f 75f
4:50pm 1.6ft 10s 3s 13 16 mph 1014.7mb 69f 74f
3:50pm 1.6ft 3s 3s 16 18 mph 1015.1mb 69f 75f
2:50pm 1.3ft 10s 3s 13
mph
1015.7mb 69f 74f
1:50pm 1.3ft 10s 3s 11 13 mph 1016.6mb 69f 74f
12:50pm 1.3ft 3s 3s 7 11 mph 1017.4mb 69f 74f
11:50am 1.3ft 10s 4s 9
mph
1017.8mb 68f 73f
10:50am 1.3ft 10s 4s 9 11 mph 1018.5mb 68f 72f
9:50am 1.3ft 10s 4s 11
mph
1018.8mb 67f 70f
8:50am 1.3ft 10s 4s 9 11 mph 1019.2mb 66f 69f
7:50am 1ft 10s 3s 11 13 mph 1019mb 66f 68f
6:50am 1.3ft 9s 4s 11 13 mph 1019.4mb 66f 68f
5:50am 1.3ft 10s 4s 11 13 mph 1019.1mb 66f 68f
4:50am 1.3ft 10s 4s 13 16 mph 1018.8mb 67f 68f
3:50am 1ft 11s 4s 11 13 mph 1019mb 67f 68f
2:50am 1.3ft 11s 4s 13 16 mph 1019.1mb 67f 68f
1:50am 1.3ft 11s 3s 11 13 mph 1020mb 67f 68f
12:50am 1.3ft 11s 3s 13
mph
1020.6mb 68f 69f
Wed 08/24 10:50pm 1ft 11s 4s 11 13 mph 1020.7mb 68f 71f
9:50pm 1.3ft 11s 4s 11
mph
1021mb 68f 71f
8:50pm 1.3ft 4s 4s 11 13 mph 1021mb 68f 73f
7:50pm 1ft 11s 4s 11
mph
1020.5mb 68f 74f
6:50pm 1ft 11s 4s 9
mph
1020.1mb 68f 74f
5:50pm 1ft 11s 5s 9
mph
1020mb 68f 72f
4:50pm 1ft 11s 4s 11 13 mph 1020.3mb 68f 71f
3:50pm 1ft 9s 5s 13
mph
1020.9mb 68f 71f
2:50pm 1ft 8s 5s 11 13 mph 1021.6mb 69f 71f
1:50pm 1ft 8s 5s 7
mph
1022.3mb 69f 71f
12:50pm 1ft 9s  -  2 4 mph 1022.7mb 68f 73f
11:50am 1ft 9s 6s 4
mph
1023.4mb 68f 71f
10:50am 1ft 9s 6s 4
mph
1024mb 67f 69f
9:50am 1ft 8s 5s 7
mph
1024mb 67f 67f
8:50am 1ft 9s 5s 9 11 mph 1024.2mb 66f 67f
7:50am 1ft 9s 5s 11
mph
1024mb 66f 66f
6:50am 1ft 12s 4s 9 11 mph 1023.6mb 66f 66f
5:50am 1ft 9s 4s 11
mph
1023.2mb 66f 66f
4:50am 1ft 10s 4s 11 13 mph 1023mb 66f 67f
3:50am 1.3ft 8s 4s 11 13 mph 1022.8mb 67f 66f
2:50am 1.3ft 11s 4s 11 13 mph 1023.3mb 67f 67f
1:50am 1ft 8s 4s 11 13 mph 1023.5mb 67f 67f
12:50am 1.3ft 9s 4s 11 13 mph 1023.8mb 67f 68f
Tue 08/23 11:50pm 1.3ft 9s 4s 9 11 mph 1023.7mb 68f 68f
10:50pm 1.3ft 9s 5s 11 13 mph 1023.4mb 67f 69f
9:50pm 1.3ft 10s 5s 9 11 mph 1023.2mb 67f 69f
8:50pm 1ft 10s 5s 9 11 mph 1022.8mb 68f 71f
7:50pm 1.3ft 9s 4s 7 9 mph 1022.3mb 68f 69f
6:50pm 1.3ft 10s 4s 9 11 mph 1022.2mb 68f 69f
5:50pm 1.3ft 10s 4s 11 16 mph 1022.3mb 68f 70f
4:50pm 1.3ft 9s 4s 13 16 mph 1022.4mb 68f 70f
3:50pm 1.3ft 11s 6s 13
mph
1022.6mb 69f 69f
2:50pm 1.3ft 9s 7s 9 11 mph 1023.2mb 69f 69f
1:50pm 1.3ft 8s 6s 4 7 mph 1023.7mb 69f 71f
12:50pm 1.3ft 8s 6s 4
mph
1024.3mb 68f 69f
11:50am 1.3ft 10s 5s 7 9 mph 1024.7mb 67f 68f
10:50am 1.3ft 10s 5s 9 11 mph 1025.1mb 67f 67f
9:50am 1.3ft 9s 4s 11 13 mph 1025mb 67f 65f
8:50am 1.3ft 10s 4s 9 11 mph 1024.7mb 67f 64f
7:50am 1.6ft 10s 3s 13
mph
1024mb 67f 63f
6:50am 1.6ft 11s 3s 13 16 mph 1023.6mb 67f 64f
4:50am 2ft 11s 4s 16 18 mph 1021.9mb 67f 64f
3:50am 2ft 9s 4s 18 20 mph 1021.3mb 67f 65f
2:50am 2.5ft 5s 4s 16 18 mph 1021.4mb 67f 65f
1:50am 2.5ft 5s 4s 16 18 mph 1021.2mb 67f 65f
12:50am 2ft 8s 4s 13 16 mph 1020.8mb 67f 66f
Mon 08/22 11:50pm 1.6ft 3s 4s 13 16 mph 1020.4mb 67f 67f
10:50pm 2ft 3s 4s 18 20 mph 1019.6mb 67f 67f
9:50pm 2ft 3s 4s 16 20 mph 1018.9mb 67f 68f
8:50pm 2.5ft 3s 4s 13 18 mph 1018.2mb 67f 68f